Garner, Kentucky
Current Conditions -  °F | °C
As of 6:55 AM on Friday 19 Dec 2014 (Local Time) from KPBX Reporting Station
Overcast Overcast  
Wind Chill: 28°   Ceiling: 1300
Heat Index: 28°   Visibility: 10mi
Dew Point: 24°   Wind: 3mph
Humidity: 85%   Direction: 10°N
Pressure: 30.21"   Gusts: NA
Location:  37.36°N, 82.93°W
Report Text: KPBX 191155Z AUTO 01003KT 10SM OVC013 M02/M04 A3021 RMK AO2 T10201042 11010 21020
Loading
Personal Weather Stations






























Interactive Weather Map New forecast layout! Learn more

10-Day Weather Forecast

Advertisements
Track Severe Weather on mobile